Time;durP1;ratioP1;P1;durP2;ratioP2;P2;SDS_P1;SDS_P2;PMS_P1;PMS_P2;Temp;Humidity;BMP_temperature;BMP_pressure;BME280_temperature;BME280_humidity;BME280_pressure;Samples;Min_cycle;Max_cycle;Signal;HPM_P1;HPM_P2
2022/11/29 00:01:23;;;;;;;278.75;24.90;;;7.90;99.90;;;;;;5087078;28;20539;-81
2022/11/29 00:03:49;;;;;;;98.55;19.58;;;8.00;99.90;;;;;;5068579;28;20076;-82
2022/11/29 00:06:20;;;;;;;111.22;18.85;;;8.20;99.90;;;;;;5054563;28;20117;-81
2022/11/29 00:08:46;;;;;;;72.05;17.67;;;8.20;99.90;;;;;;5082555;28;20515;-81
2022/11/29 00:14:04;;;;;;;126.80;19.70;;;8.20;99.90;;;;;;5075953;28;20102;-81
2022/11/29 00:16:30;;;;;;;112.60;18.77;;;8.20;99.90;;;;;;5085009;28;20052;-80
2022/11/29 00:18:56;;;;;;;109.70;18.17;;;9.70;99.90;;;;;;5083916;28;20102;-81
2022/11/29 00:21:21;;;;;;;90.05;17.88;;;8.10;99.90;;;;;;5079378;28;20047;-81
2022/11/29 00:23:47;;;;;;;304.67;24.45;;;8.20;99.90;;;;;;5082169;28;20119;-81
2022/11/29 00:26:13;;;;;;;111.90;17.98;;;8.10;99.90;;;;;;5064061;28;20405;-80
2022/11/29 00:28:38;;;;;;;88.95;18.02;;;8.20;99.90;;;;;;5079652;28;20102;-81
2022/11/29 00:31:17;;;;;;;172.52;21.10;;;8.10;99.90;;;;;;5087423;28;20048;-80
2022/11/29 00:33:43;;;;;;;201.40;21.48;;;8.20;99.90;;;;;;5067063;28;20405;-80
2022/11/29 00:36:09;;;;;;;119.07;19.05;;;8.10;99.90;;;;;;5094285;28;20040;-80
2022/11/29 00:38:35;;;;;;;106.75;17.52;;;8.10;99.90;;;;;;5091300;28;20119;-81
2022/11/29 00:41:01;;;;;;;85.13;16.45;;;8.20;99.90;;;;;;5074557;28;20462;-81
2022/11/29 00:43:26;;;;;;;162.82;18.67;;;8.10;99.90;;;;;;5085530;28;20035;-81
2022/11/29 00:45:52;;;;;;;80.70;17.10;;;8.10;99.90;;;;;;5088657;28;20047;-81
2022/11/29 00:48:18;;;;;;;110.68;18.63;;;8.10;99.90;;;;;;5089304;28;20493;-81
2022/11/29 00:50:44;;;;;;;96.03;18.63;;;8.20;99.90;;;;;;5090516;28;20052;-81
2022/11/29 00:53:09;;;;;;;85.47;17.70;;;8.10;99.90;;;;;;5085827;28;20044;-80
2022/11/29 00:55:35;;;;;;;117.63;18.63;;;8.10;99.90;;;;;;5061669;28;20486;-80
2022/11/29 00:58:01;;;;;;;94.65;18.73;;;8.10;99.90;;;;;;5068473;28;20031;-80
2022/11/29 01:00:27;;;;;;;134.10;19.90;;;8.10;99.90;;;;;;5091578;28;20084;-80
2022/11/29 01:02:52;;;;;;;96.07;17.42;;;8.10;99.90;;;;;;5088155;28;20047;-81
2022/11/29 01:05:18;;;;;;;63.13;16.10;;;8.10;99.90;;;;;;5076644;28;20043;-80
2022/11/29 01:07:44;;;;;;;80.85;16.70;;;8.10;99.90;;;;;;5088065;28;20036;-81
2022/11/29 01:10:09;;;;;;;68.28;15.75;;;8.10;99.90;;;;;;5095503;28;20040;-80
2022/11/29 01:12:36;;;;;;;117.35;17.77;;;8.10;99.90;;;;;;5090796;28;20126;-81
2022/11/29 01:15:04;;;;;;;78.25;16.58;;;8.10;99.90;;;;;;5067962;28;20615;-80
2022/11/29 01:17:30;;;;;;;79.43;17.23;;;8.00;99.90;;;;;;5058308;28;20047;-80
2022/11/29 01:19:56;;;;;;;83.10;16.58;;;;;;;;;;5092947;28;20040;-81
2022/11/29 01:22:21;;;;;;;55.35;14.77;;;8.00;99.90;;;;;;5089689;28;20111;-81
2022/11/29 01:24:47;;;;;;;70.72;15.07;;;8.30;99.90;;;;;;5088014;28;20070;-81
2022/11/29 01:27:13;;;;;;;99.75;17.00;;;8.00;99.90;;;;;;5087795;28;20040;-81
2022/11/29 01:29:39;;;;;;;54.42;14.55;;;8.00;99.90;;;;;;5090934;28;20040;-80
2022/11/29 01:32:05;;;;;;;122.40;17.80;;;8.00;99.90;;;;;;5075562;28;20122;-80
2022/11/29 01:34:30;;;;;;;51.85;15.48;;;8.00;99.90;;;;;;5093848;28;20028;-81
2022/11/29 01:36:56;;;;;;;50.95;15.07;;;8.00;99.90;;;;;;5081989;28;20505;-81
2022/11/29 01:39:22;;;;;;;58.95;15.52;;;8.00;99.90;;;;;;5093004;28;20543;-81
2022/11/29 01:41:47;;;;;;;77.43;15.57;;;8.10;99.90;;;;;;5092223;28;20206;-81
2022/11/29 01:44:13;;;;;;;132.75;18.10;;;8.10;99.90;;;;;;5106720;28;20047;-79
2022/11/29 01:46:43;;;;;;;41.63;14.93;;;8.00;99.90;;;;;;5111265;28;20039;-81
2022/11/29 01:49:21;;;;;;;71.30;15.65;;;8.00;99.90;;;;;;5099067;28;20082;-81
2022/11/29 01:51:59;;;;;;;80.38;14.65;;;8.00;99.90;;;;;;5078367;28;20116;-80
2022/11/29 01:54:27;;;;;;;69.38;15.38;;;8.00;99.90;;;;;;5088001;28;20520;-79
2022/11/29 01:56:52;;;;;;;85.63;15.27;;;8.00;99.90;;;;;;5093270;28;20058;-80
2022/11/29 01:59:22;;;;;;;93.70;16.05;;;7.90;99.90;;;;;;5085690;28;20492;-81
2022/11/29 02:01:48;;;;;;;98.85;16.27;;;8.00;99.90;;;;;;5095321;28;20070;-81
2022/11/29 02:04:15;;;;;;;81.57;16.70;;;8.00;99.90;;;;;;5087793;28;20575;-80
2022/11/29 02:06:42;;;;;;;157.65;17.88;;;7.90;99.90;;;;;;5074176;28;20446;-81
2022/11/29 02:09:22;;;;;;;66.45;15.48;;;7.90;99.90;;;;;;5065030;28;20072;-82
2022/11/29 02:12:06;;;;;;;46.20;14.55;;;7.90;99.90;;;;;;5086220;28;20050;-81
2022/11/29 02:14:56;;;;;;;60.20;16.00;;;7.70;99.90;;;;;;5093578;28;20527;-81
2022/11/29 02:18:04;;;;;;;83.05;16.73;;;8.00;99.90;;;;;;5105372;28;20040;-81
2022/11/29 02:20:48;;;;;;;113.63;18.92;;;8.00;99.90;;;;;;5107161;28;20393;-80
2022/11/29 02:23:38;;;;;;;93.88;17.30;;;7.90;99.90;;;;;;5092265;28;20501;-81
2022/11/29 02:26:35;;;;;;;61.15;16.55;;;7.90;99.90;;;;;;5073582;28;20489;-80
2022/11/29 02:29:27;;;;;;;69.20;16.90;;;8.00;99.90;;;;;;5091858;28;21020;-79
2022/11/29 02:32:17;;;;;;;60.28;17.27;;;8.00;99.90;;;;;;5102233;27;20101;-80
2022/11/29 02:35:02;;;;;;;47.72;16.38;;;8.00;99.90;;;;;;5077986;28;20516;-81
2022/11/29 02:37:46;;;;;;;62.40;17.67;;;8.00;99.90;;;;;;5089887;28;20032;-80
2022/11/29 02:40:27;;;;;;;79.65;18.38;;;7.00;99.90;;;;;;5103082;28;20044;-80
2022/11/29 02:43:17;;;;;;;104.03;19.05;;;8.00;99.90;;;;;;5090979;28;20036;-80
2022/11/29 02:45:52;;;;;;;59.15;16.50;;;7.90;99.90;;;;;;5095022;28;20122;-80
2022/11/29 02:48:37;;;;;;;57.00;18.20;;;7.90;99.90;;;;;;5099248;28;20055;-81
2022/11/29 02:51:17;;;;;;;55.78;16.77;;;7.90;99.90;;;;;;5090616;28;20040;-80
2022/11/29 02:54:03;;;;;;;60.92;17.58;;;7.90;99.90;;;;;;5075002;28;20031;-79
2022/11/29 02:57:10;;;;;;;86.53;18.25;;;7.90;99.90;;;;;;5090508;28;20051;-79
2022/11/29 02:59:54;;;;;;;71.70;17.85;;;7.90;99.90;;;;;;5088417;28;20169;-80
2022/11/29 03:02:28;;;;;;;47.70;15.90;;;7.90;99.90;;;;;;5091526;28;20058;-81
2022/11/29 03:05:01;;;;;;;55.67;17.80;;;7.90;99.90;;;;;;5096593;28;20115;-80
2022/11/29 03:07:48;;;;;;;68.55;17.35;;;7.90;99.90;;;;;;5090003;28;20036;-80
2022/11/29 03:10:29;;;;;;;82.60;18.33;;;7.90;99.90;;;;;;5092193;28;20538;-81
2022/11/29 03:13:01;;;;;;;45.55;15.93;;;7.90;99.90;;;;;;5079882;28;20097;-80
2022/11/29 03:15:45;;;;;;;93.93;19.90;;;7.90;99.90;;;;;;5084246;28;20131;-81
2022/11/29 03:18:26;;;;;;;60.28;16.80;;;7.90;99.90;;;;;;5080281;28;20044;-80
2022/11/29 03:21:14;;;;;;;59.10;17.48;;;7.90;99.90;;;;;;5090041;28;20039;-81
2022/11/29 03:23:50;;;;;;;68.95;17.10;;;7.90;99.90;;;;;;5089797;28;20047;-80
2022/11/29 03:26:26;;;;;;;79.82;18.50;;;7.90;99.90;;;;;;5090851;28;20040;-80
2022/11/29 03:29:17;;;;;;;51.75;16.88;;;7.90;99.90;;;;;;5089654;28;20086;-80
2022/11/29 03:31:51;;;;;;;72.78;17.75;;;7.90;99.90;;;;;;5093208;28;20044;-81
2022/11/29 03:34:34;;;;;;;49.70;16.73;;;7.90;99.90;;;;;;5109874;28;20475;-81
2022/11/29 03:37:14;;;;;;;65.47;16.48;;;7.90;99.90;;;;;;5089698;28;20126;-81
2022/11/29 03:39:43;;;;;;;54.03;17.42;;;7.90;99.90;;;;;;5089497;28;20132;-80
2022/11/29 03:42:29;;;;;;;54.88;17.40;;;7.90;99.90;;;;;;5090818;28;20036;-81
2022/11/29 03:45:07;;;;;;;60.67;18.33;;;8.00;99.90;;;;;;5089631;28;20043;-80
2022/11/29 03:47:40;;;;;;;58.75;17.25;;;8.00;99.90;;;;;;5073706;28;20101;-81
2022/11/29 03:50:12;;;;;;;60.72;17.98;;;7.90;99.90;;;;;;5100531;28;20087;-80
2022/11/29 03:52:50;;;;;;;46.88;16.70;;;7.90;99.90;;;;;;5071925;28;20115;-81
2022/11/29 03:55:53;;;;;;;49.45;18.02;;;7.90;99.90;;;;;;5094793;28;20389;-81
2022/11/29 03:58:34;;;;;;;68.10;18.88;;;7.90;99.90;;;;;;5097095;28;20036;-80
2022/11/29 04:01:20;;;;;;;48.28;17.67;;;7.90;99.90;;;;;;5071515;28;20032;-80
2022/11/29 04:04:27;;;;;;;62.05;17.58;;;7.80;99.90;;;;;;5091527;28;20044;-81
2022/11/29 04:07:15;;;;;;;52.67;17.20;;;7.80;99.90;;;;;;5040695;28;20060;-81
2022/11/29 04:10:19;;;;;;;50.60;17.23;;;7.80;99.90;;;;;;5106711;28;20087;-80
2022/11/29 04:13:19;;;;;;;44.95;16.80;;;7.80;99.90;;;;;;5072441;28;20040;-80
2022/11/29 04:16:06;;;;;;;43.17;16.33;;;7.80;99.90;;;;;;5089977;28;20047;-81
2022/11/29 04:18:35;;;;;;;50.60;17.67;;;7.50;99.90;;;;;;5077476;28;20047;-81
2022/11/29 04:21:18;;;;;;;55.55;17.98;;;7.80;99.90;;;;;;5088707;28;20047;-80
2022/11/29 04:24:09;;;;;;;69.75;18.52;;;7.80;99.90;;;;;;5099150;28;20131;-80
2022/11/29 04:26:40;;;;;;;69.82;20.08;;;7.80;99.90;;;;;;5092241;28;20039;-81
2022/11/29 04:29:38;;;;;;;73.38;19.73;;;7.80;99.90;;;;;;5092743;28;20040;-81
2022/11/29 04:32:38;;;;;;;46.58;17.08;;;7.70;99.90;;;;;;5088811;28;20047;-80
2022/11/29 04:35:32;;;;;;;53.83;18.70;;;7.70;99.90;;;;;;5089013;28;20044;-81
2022/11/29 04:38:04;;;;;;;45.47;17.42;;;7.70;99.90;;;;;;5071587;28;20516;-80
2022/11/29 04:41:04;;;;;;;73.95;19.83;;;7.70;99.90;;;;;;5092657;28;20454;-81
2022/11/29 04:43:41;;;;;;;47.88;17.80;;;7.70;99.90;;;;;;5071730;28;20545;-81
2022/11/29 04:46:34;;;;;;;54.60;17.50;;;7.70;99.90;;;;;;5088519;28;20097;-80
2022/11/29 04:49:18;;;;;;;67.85;18.80;;;7.70;99.90;;;;;;5088269;28;20032;-81
2022/11/29 04:52:01;;;;;;;49.72;17.35;;;8.00;99.90;;;;;;5092488;28;20441;-81
2022/11/29 04:54:43;;;;;;;47.45;16.90;;;7.70;99.90;;;;;;5088307;28;20043;-79
2022/11/29 04:57:43;;;;;;;45.33;17.90;;;7.70;99.90;;;;;;5089386;28;20177;-80
2022/11/29 05:00:11;;;;;;;46.45;17.00;;;7.70;99.90;;;;;;5087130;28;20424;-80
2022/11/29 05:02:45;;;;;;;52.47;17.67;;;7.70;99.90;;;;;;5088450;28;20055;-80
2022/11/29 05:05:38;;;;;;;72.03;18.83;;;8.00;99.90;;;;;;5093073;28;20044;-81
2022/11/29 05:08:07;;;;;;;;;;;7.70;99.90;;;;;;5104440;28;20105;-82
2022/11/29 05:11:18;;;;;;;87.00;18.73;;;7.60;99.90;;;;;;5092357;28;19916;-82
2022/11/29 05:13:49;;;;;;;38.90;15.55;;;7.70;99.90;;;;;;5083804;28;20496;-80
2022/11/29 05:16:29;;;;;;;38.65;15.73;;;7.70;99.90;;;;;;5112534;28;20047;-81
2022/11/29 05:19:30;;;;;;;46.20;16.73;;;7.70;99.90;;;;;;5095719;28;20112;-81
2022/11/29 05:22:10;;;;;;;59.67;17.75;;;7.70;99.90;;;;;;5093215;28;20044;-80
2022/11/29 05:24:50;;;;;;;47.70;17.75;;;7.70;99.90;;;;;;5075620;28;20044;-81
2022/11/29 05:27:34;;;;;;;52.10;17.60;;;7.70;99.90;;;;;;5093489;28;20788;-80
2022/11/29 05:30:11;;;;;;;44.17;16.58;;;7.70;99.90;;;;;;5092358;28;20040;-81
2022/11/29 05:33:04;;;;;;;51.65;17.27;;;7.60;99.90;;;;;;5099350;28;20056;-81
2022/11/29 05:35:30;;;;;;;47.47;16.42;;;7.60;99.90;;;;;;5099042;28;20346;-81
2022/11/29 05:38:34;;;;;;;51.28;16.58;;;7.60;99.90;;;;;;5097325;28;20051;-81
2022/11/29 05:41:29;;;;;;;38.08;15.68;;;7.60;99.90;;;;;;5096711;28;20032;-81
2022/11/29 05:44:07;;;;;;;48.83;16.15;;;7.30;99.90;;;;;;5101456;28;20040;-81
2022/11/29 05:46:45;;;;;;;42.80;15.95;;;7.50;99.90;;;;;;5102423;28;20031;-81
2022/11/29 05:49:19;;;;;;;41.38;16.45;;;7.50;99.90;;;;;;5104434;28;20058;-81
2022/11/29 05:52:06;;;;;;;37.85;15.73;;;7.50;99.90;;;;;;5096694;28;20048;-81
2022/11/29 05:54:57;;;;;;;46.05;16.13;;;7.50;99.90;;;;;;5091528;28;20040;-81
2022/11/29 05:57:48;;;;;;;39.20;15.90;;;8.20;99.90;;;;;;5097582;28;20523;-81
2022/11/29 06:00:16;;;;;;;45.08;16.48;;;7.50;99.90;;;;;;5092320;28;20378;-81
2022/11/29 06:02:50;;;;;;;50.75;17.52;;;7.40;99.90;;;;;;5100828;28;20067;-80
2022/11/29 06:05:19;;;;;;;52.75;16.77;;;7.40;99.90;;;;;;5091601;28;20036;-81
2022/11/29 06:08:10;;;;;;;48.50;16.45;;;7.40;99.90;;;;;;5090801;28;20109;-80
2022/11/29 06:10:38;;;;;;;42.10;16.15;;;7.40;99.90;;;;;;5090974;28;20585;-81
2022/11/29 06:13:23;;;;;;;35.83;15.63;;;7.40;99.90;;;;;;5105931;28;20521;-80
2022/11/29 06:16:15;;;;;;;43.55;15.77;;;7.40;99.90;;;;;;5075505;28;20575;-80
2022/11/29 06:19:17;;;;;;;36.03;15.80;;;7.70;99.90;;;;;;5098687;28;20406;-81
2022/11/29 06:21:59;;;;;;;37.28;14.65;;;7.40;99.90;;;;;;5104655;28;20607;-80
2022/11/29 06:24:58;;;;;;;35.80;14.70;;;7.40;99.90;;;;;;5101083;28;20512;-80
2022/11/29 06:27:43;;;;;;;42.90;15.98;;;7.30;99.90;;;;;;5076360;28;20517;-82
2022/11/29 06:30:13;;;;;;;50.78;15.93;;;7.30;99.90;;;;;;5091002;28;20529;-80
2022/11/29 06:33:00;;;;;;;39.72;14.82;;;7.30;99.90;;;;;;5098181;28;20414;-80
2022/11/29 06:35:45;;;;;;;40.10;14.55;;;7.30;99.90;;;;;;5093752;28;20533;-81
2022/11/29 06:38:28;;;;;;;36.67;14.48;;;7.30;99.90;;;;;;5091205;28;20048;-79
2022/11/29 06:40:56;;;;;;;31.08;13.98;;;7.30;99.90;;;;;;5096574;28;20094;-81
2022/11/29 06:43:24;;;;;;;41.28;14.82;;;7.30;99.90;;;;;;5097744;28;20107;-82
2022/11/29 06:46:29;;;;;;;40.20;14.93;;;7.30;99.90;;;;;;5091207;28;20047;-80
2022/11/29 06:49:24;;;;;;;36.58;13.63;;;7.30;99.90;;;;;;5073735;28;20040;-81
2022/11/29 06:51:52;;;;;;;37.30;13.65;;;7.30;99.90;;;;;;5083570;28;20048;-81
2022/11/29 06:54:51;;;;;;;26.33;13.43;;;7.30;99.90;;;;;;5073648;28;20397;-82
2022/11/29 06:57:39;;;;;;;32.33;13.93;;;7.30;99.90;;;;;;5091225;28;20039;-82
2022/11/29 07:00:29;;;;;;;32.72;13.35;;;7.30;99.90;;;;;;5090603;28;20436;-81
2022/11/29 07:02:58;;;;;;;32.00;12.70;;;7.30;99.90;;;;;;5092032;28;20036;-81
2022/11/29 07:05:30;;;;;;;31.85;14.05;;;7.30;99.90;;;;;;5090213;28;20047;-81
2022/11/29 07:08:14;;;;;;;28.05;12.70;;;7.20;99.90;;;;;;5085367;28;20047;-80
2022/11/29 07:10:48;;;;;;;30.63;13.15;;;7.20;99.90;;;;;;5089016;28;20051;-82
2022/11/29 07:13:15;;;;;;;32.22;13.57;;;7.20;99.90;;;;;;5092387;28;20035;-81
2022/11/29 07:15:54;;;;;;;36.30;14.23;;;7.30;99.90;;;;;;5093406;28;20130;-81
2022/11/29 07:18:25;;;;;;;31.38;13.55;;;7.30;99.90;;;;;;5091245;28;20043;-82
2022/11/29 07:21:16;;;;;;;28.73;13.55;;;7.30;99.90;;;;;;5089895;28;20036;-81
2022/11/29 07:23:51;;;;;;;33.25;14.18;;;7.40;99.90;;;;;;5075050;28;20051;-79
2022/11/29 07:26:40;;;;;;;32.30;13.05;;;7.30;99.90;;;;;;5099192;28;20424;-81
2022/11/29 07:29:37;;;;;;;32.67;12.93;;;7.30;99.90;;;;;;5111377;28;20045;-81
2022/11/29 07:32:18;;;;;;;34.38;13.45;;;7.00;99.90;;;;;;5079965;28;20121;-81
2022/11/29 07:35:13;;;;;;;30.80;12.63;;;7.30;99.90;;;;;;5089730;28;20094;-80
2022/11/29 07:38:11;;;;;;;30.15;12.82;;;7.30;99.90;;;;;;5073015;28;20059;-81
2022/11/29 07:41:00;;;;;;;33.05;13.18;;;7.30;99.90;;;;;;5090788;28;20044;-80
2022/11/29 07:44:07;;;;;;;28.02;11.82;;;7.30;99.90;;;;;;5089569;28;20028;-81
2022/11/29 07:46:35;;;;;;;26.13;12.00;;;7.30;99.90;;;;;;5028092;28;20570;-81
2022/11/29 07:49:00;;;;;;;29.77;12.30;;;7.20;99.90;;;;;;5073609;28;20109;-80
2022/11/29 07:51:26;;;;;;;29.30;12.00;;;7.40;99.90;;;;;;5083815;28;20031;-80
2022/11/29 07:53:52;;;;;;;29.20;12.27;;;7.30;99.90;;;;;;5107269;28;20114;-81
2022/11/29 07:56:18;;;;;;;27.85;12.00;;;7.30;99.90;;;;;;5072910;28;20106;-81
2022/11/29 07:58:44;;;;;;;34.75;13.15;;;7.60;99.90;;;;;;5082307;28;20047;-80
2022/11/29 08:01:09;;;;;;;30.02;12.52;;;7.30;99.90;;;;;;5089429;28;20481;-82
2022/11/29 08:03:35;;;;;;;32.85;12.32;;;7.30;99.90;;;;;;5090317;28;20047;-80
2022/11/29 08:06:04;;;;;;;31.17;12.70;;;;;;;;;;5069184;28;20504;-81
2022/11/29 08:08:30;;;;;;;27.13;12.05;;;7.30;99.90;;;;;;5106106;28;20039;-81
2022/11/29 08:10:56;;;;;;;28.77;12.43;;;7.30;99.90;;;;;;5062156;28;20040;-81
2022/11/29 08:13:22;;;;;;;28.98;12.57;;;7.30;99.90;;;;;;5081331;28;20047;-81
2022/11/29 08:15:48;;;;;;;32.40;12.00;;;7.30;99.90;;;;;;5083034;28;20056;-80
2022/11/29 08:18:17;;;;;;;29.15;12.05;;;7.40;99.90;;;;;;5107138;28;20558;-81
2022/11/29 08:20:45;;;;;;;30.10;13.07;;;7.40;99.90;;;;;;5109750;28;20036;-80
2022/11/29 08:23:12;;;;;;;28.15;12.15;;;7.40;99.90;;;;;;5077755;28;20047;-81
2022/11/29 08:25:38;;;;;;;33.92;13.15;;;7.40;99.90;;;;;;5105220;28;20043;-80
2022/11/29 08:28:07;;;;;;;27.33;12.00;;;7.50;99.90;;;;;;5089846;28;20071;-81
2022/11/29 08:30:33;;;;;;;27.25;12.13;;;7.50;99.90;;;;;;5090112;28;20074;-81
2022/11/29 08:32:59;;;;;;;27.48;11.38;;;7.50;99.90;;;;;;5089865;28;20477;-81
2022/11/29 08:35:24;;;;;;;25.05;11.52;;;7.50;99.90;;;;;;5088686;28;20051;-81
2022/11/29 08:37:50;;;;;;;26.58;11.35;;;7.70;99.90;;;;;;5101729;28;20040;-80
2022/11/29 08:40:16;;;;;;;25.58;11.80;;;8.70;99.90;;;;;;5098080;28;20085;-80
2022/11/29 08:42:42;;;;;;;24.52;12.05;;;7.50;99.90;;;;;;5089935;28;20130;-81
2022/11/29 08:45:09;;;;;;;25.98;11.57;;;7.50;99.90;;;;;;5078294;28;20546;-79
2022/11/29 08:47:41;;;;;;;25.58;11.07;;;7.50;99.90;;;;;;5066109;28;20089;-81
2022/11/29 08:50:13;;;;;;;27.67;11.90;;;7.50;99.90;;;;;;5078274;28;20489;-80
2022/11/29 08:55:41;;;;;;;24.05;10.80;;;7.60;99.90;;;;;;5088790;28;20401;-81
2022/11/29 08:58:14;;;;;;;27.02;11.50;;;7.60;99.90;;;;;;5059648;28;20046;-81
2022/11/29 09:00:43;;;;;;;25.08;10.68;;;7.60;99.90;;;;;;5103943;28;20468;-81
2022/11/29 09:05:53;;;;;;;24.77;10.55;;;7.60;99.90;;;;;;5105312;28;20050;-81
2022/11/29 09:08:19;;;;;;;24.13;10.82;;;7.70;99.90;;;;;;5106900;28;20126;-81
2022/11/29 09:10:45;;;;;;;30.27;11.88;;;7.70;99.90;;;;;;5107408;28;20420;-80
2022/11/29 09:13:11;;;;;;;26.17;11.65;;;7.70;99.90;;;;;;5087170;28;20542;-81
2022/11/29 09:15:44;;;;;;;21.52;10.38;;;7.70;99.90;;;;;;5075919;28;20052;-81
2022/11/29 09:18:09;;;;;;;24.08;11.35;;;7.70;99.90;;;;;;5071486;28;20425;-81
2022/11/29 09:20:35;;;;;;;31.58;11.18;;;7.80;99.90;;;;;;5105717;28;20039;-81
2022/11/29 09:23:01;;;;;;;25.50;11.15;;;7.80;99.90;;;;;;5066301;28;20112;-81
2022/11/29 09:25:30;;;;;;;28.92;11.15;;;7.80;99.90;;;;;;5088372;28;20040;-81
2022/11/29 09:28:02;;;;;;;24.42;9.90;;;7.80;99.90;;;;;;5090135;28;20067;-84
2022/11/29 09:30:32;;;;;;;25.58;10.63;;;7.80;99.90;;;;;;5071565;28;20123;-80
2022/11/29 09:33:01;;;;;;;23.73;11.05;;;7.90;99.90;;;;;;5088600;28;20040;-81
2022/11/29 09:35:27;;;;;;;21.75;10.02;;;7.90;99.90;;;;;;5088411;28;20044;-81
2022/11/29 09:37:53;;;;;;;23.20;10.45;;;7.90;99.90;;;;;;5097209;28;20450;-81
2022/11/29 09:40:26;;;;;;;21.40;10.18;;;8.30;99.90;;;;;;5098343;28;20028;-82
2022/11/29 09:43:05;;;;;;;19.90;10.15;;;8.40;99.90;;;;;;5088245;28;20043;-82
2022/11/29 09:45:45;;;;;;;21.77;10.07;;;8.00;99.90;;;;;;5088056;28;20124;-81
2022/11/29 09:48:19;;;;;;;26.05;10.27;;;8.10;99.90;;;;;;5095972;28;20055;-82
2022/11/29 09:51:04;;;;;;;23.30;10.13;;;7.50;99.90;;;;;;5101086;28;20119;-80
2022/11/29 09:54:00;;;;;;;22.88;9.63;;;8.20;99.90;;;;;;5091516;28;20048;-80
2022/11/29 09:56:37;;;;;;;24.33;10.18;;;8.20;99.90;;;;;;5092732;28;20044;-81
2022/11/29 09:59:09;;;;;;;25.10;10.52;;;8.20;99.90;;;;;;5106699;28;20032;-82
2022/11/29 10:02:01;;;;;;;28.42;10.63;;;8.30;99.90;;;;;;5091608;28;20047;-80
2022/11/29 10:04:36;;;;;;;26.65;10.63;;;8.30;99.90;;;;;;5093029;28;20040;-81
2022/11/29 10:07:05;;;;;;;24.10;10.02;;;8.70;99.90;;;;;;5091617;28;20050;-81
2022/11/29 10:09:46;;;;;;;26.17;9.95;;;8.40;99.90;;;;;;5092560;28;20040;-81
2022/11/29 10:12:21;;;;;;;28.60;10.75;;;8.40;99.90;;;;;;5097864;28;20195;-80
2022/11/29 10:15:07;;;;;;;24.10;10.25;;;8.50;99.90;;;;;;5092867;28;20036;-81
2022/11/29 10:17:46;;;;;;;26.08;10.00;;;8.50;99.90;;;;;;5075630;28;20113;-81
2022/11/29 10:20:14;;;;;;;27.08;10.63;;;8.70;99.90;;;;;;5090900;28;20036;-81
2022/11/29 10:22:52;;;;;;;24.23;10.20;;;8.80;99.90;;;;;;5091058;28;20054;-81
2022/11/29 10:25:44;;;;;;;25.55;10.48;;;8.80;99.90;;;;;;5088713;28;20397;-81
2022/11/29 10:28:15;;;;;;;24.67;10.82;;;8.80;99.90;;;;;;5087655;28;20123;-82
2022/11/29 10:30:42;;;;;;;23.92;10.32;;;8.80;99.90;;;;;;5074263;28;20438;-80
2022/11/29 10:33:39;;;;;;;25.55;10.65;;;8.90;99.90;;;;;;5090574;28;20044;-81
2022/11/29 10:36:34;;;;;;;24.70;11.10;;;8.90;99.90;;;;;;5079457;28;20054;-82
2022/11/29 10:39:11;;;;;;;23.00;10.77;;;9.00;99.90;;;;;;5080081;28;20048;-81
2022/11/29 10:41:37;;;;;;;25.23;10.50;;;9.00;99.90;;;;;;5091749;28;20097;-82
2022/11/29 10:44:03;;;;;;;25.77;11.23;;;9.10;99.90;;;;;;5090009;28;20489;-82
2022/11/29 10:46:35;;;;;;;23.80;10.77;;;9.10;99.90;;;;;;5091083;28;20596;-82
2022/11/29 10:49:12;;;;;;;23.00;10.43;;;9.10;99.90;;;;;;5090582;28;20101;-81
2022/11/29 10:51:37;;;;;;;22.05;10.68;;;9.10;99.90;;;;;;5090733;28;20554;-80
2022/11/29 10:54:41;;;;;;;23.23;11.38;;;9.10;99.90;;;;;;5090756;28;20043;-81
2022/11/29 10:57:16;;;;;;;24.33;12.15;;;9.10;99.90;;;;;;5111037;28;20043;-82
2022/11/29 11:00:06;;;;;;;22.02;12.20;;;9.10;99.90;;;;;;5111390;28;20193;-82
2022/11/29 11:02:32;;;;;;;24.15;13.13;;;9.20;99.90;;;;;;5101914;28;20106;-81
2022/11/29 11:05:00;;;;;;;27.08;12.68;;;9.10;99.90;;;;;;5090692;28;20040;-83
2022/11/29 11:07:34;;;;;;;21.83;11.80;;;9.20;99.90;;;;;;5073202;28;20141;-82
2022/11/29 11:10:03;;;;;;;20.80;11.13;;;9.10;99.90;;;;;;5091911;28;20039;-82
2022/11/29 11:12:32;;;;;;;20.20;11.30;;;9.10;99.90;;;;;;5096998;28;20077;-81
2022/11/29 11:15:27;;;;;;;20.95;11.75;;;9.10;99.90;;;;;;5090710;28;20570;-81
2022/11/29 11:17:59;;;;;;;22.63;11.70;;;9.10;99.90;;;;;;5091377;28;20465;-82
2022/11/29 11:20:28;;;;;;;19.02;11.13;;;9.10;99.90;;;;;;5090158;28;20285;-82
2022/11/29 11:23:19;;;;;;;19.80;11.45;;;9.10;99.90;;;;;;5074208;28;20044;-81
2022/11/29 11:25:48;;;;;;;22.98;11.30;;;9.10;99.90;;;;;;5090426;28;20086;-82
2022/11/29 11:28:41;;;;;;;19.88;11.15;;;9.10;99.90;;;;;;5091765;28;20109;-82
2022/11/29 11:31:10;;;;;;;18.80;10.80;;;9.10;99.90;;;;;;5089130;28;20040;-81
2022/11/29 11:33:44;;;;;;;19.70;10.98;;;9.10;99.90;;;;;;5108771;28;20032;-82
2022/11/29 11:36:18;;;;;;;16.90;9.55;;;9.10;99.90;;;;;;5084135;28;20078;-82
2022/11/29 11:38:52;;;;;;;20.30;11.23;;;9.10;99.90;;;;;;5090961;28;20046;-82
2022/11/29 11:41:19;;;;;;;23.52;10.75;;;9.10;99.90;;;;;;5103693;28;20085;-82
2022/11/29 11:43:58;;;;;;;20.35;11.45;;;9.10;99.90;;;;;;5089857;28;21028;-82
2022/11/29 11:46:47;;;;;;;20.95;11.40;;;9.10;99.90;;;;;;5094635;28;20044;-82
2022/11/29 11:49:35;;;;;;;21.23;10.73;;;9.10;99.90;;;;;;5109749;28;20043;-82
2022/11/29 11:52:03;;;;;;;20.98;11.38;;;9.10;99.90;;;;;;5090941;28;20040;-81
2022/11/29 11:54:30;;;;;;;19.23;10.93;;;9.10;99.90;;;;;;5090416;28;20474;-82
2022/11/29 11:56:56;;;;;;;21.92;10.90;;;9.00;99.90;;;;;;5072934;28;20040;-82
2022/11/29 11:59:25;;;;;;;18.55;10.48;;;9.00;99.90;;;;;;5068793;28;20637;-81
2022/11/29 12:01:51;;;;;;;18.65;10.60;;;9.00;99.90;;;;;;5090622;28;20032;-81
2022/11/29 12:04:33;;;;;;;18.02;9.98;;;9.00;99.90;;;;;;5086317;28;20051;-81
2022/11/29 12:07:00;;;;;;;17.40;10.38;;;9.00;99.90;;;;;;5091248;28;20036;-82
2022/11/29 12:09:42;;;;;;;19.45;10.02;;;9.00;99.90;;;;;;5088788;28;20386;-82
2022/11/29 12:12:20;;;;;;;18.10;10.18;;;9.00;99.90;;;;;;5101827;28;20572;-82
2022/11/29 12:14:56;;;;;;;18.83;10.25;;;9.00;99.90;;;;;;5110481;28;20047;-81
2022/11/29 12:17:52;;;;;;;19.88;11.18;;;9.00;99.90;;;;;;5085247;28;20484;-82
2022/11/29 12:20:44;;;;;;;20.48;11.38;;;9.00;99.90;;;;;;5090128;28;20044;-82
2022/11/29 12:23:13;;;;;;;21.80;11.65;;;9.00;99.90;;;;;;5080796;28;20511;-81
2022/11/29 12:26:13;;;;;;;23.30;11.70;;;9.00;99.90;;;;;;5092570;28;20055;-82
2022/11/29 12:28:40;;;;;;;19.50;10.68;;;8.90;99.90;;;;;;5089032;28;20043;-82
2022/11/29 12:31:15;;;;;;;21.30;11.38;;;8.80;99.90;;;;;;5088306;28;20577;-82
2022/11/29 12:33:53;;;;;;;19.15;10.52;;;8.80;99.90;;;;;;5089787;28;20036;-81
2022/11/29 12:36:44;;;;;;;15.93;10.38;;;8.80;99.90;;;;;;5088719;28;20060;-83
2022/11/29 12:39:37;;;;;;;19.30;10.52;;;8.70;99.90;;;;;;5104302;28;20169;-82
2022/11/29 12:42:19;;;;;;;17.87;9.67;;;8.70;99.90;;;;;;5098589;28;20421;-83
2022/11/29 12:45:03;;;;;;;16.52;9.55;;;8.70;99.90;;;;;;5098470;28;20695;-82
2022/11/29 12:47:45;;;;;;;16.02;9.32;;;7.70;99.90;;;;;;5086422;28;20131;-81
2022/11/29 12:50:33;;;;;;;15.13;9.30;;;8.70;99.90;;;;;;5088547;28;20136;-82
2022/11/29 12:53:13;;;;;;;16.95;9.10;;;8.70;99.90;;;;;;5098750;28;20119;-82
2022/11/29 12:56:06;;;;;;;15.77;9.43;;;8.70;99.90;;;;;;5102223;28;20031;-81
2022/11/29 12:58:38;;;;;;;15.55;9.50;;;8.70;99.90;;;;;;5099917;28;20100;-81
2022/11/29 13:01:09;;;;;;;16.10;9.23;;;8.70;99.90;;;;;;5071783;28;20047;-82
2022/11/29 13:04:00;;;;;;;13.63;8.23;;;8.70;99.90;;;;;;5088479;28;20044;-83
2022/11/29 13:06:51;;;;;;;14.07;7.57;;;8.60;99.90;;;;;;5100445;28;20043;-82
2022/11/29 13:09:25;;;;;;;16.30;9.20;;;8.60;99.90;;;;;;5096385;28;20441;-82
2022/11/29 13:12:01;;;;;;;15.98;8.95;;;8.50;99.90;;;;;;5093600;28;20039;-82
2022/11/29 13:14:48;;;;;;;16.10;9.65;;;8.50;99.90;;;;;;5092257;28;20035;-82
2022/11/29 13:17:31;;;;;;;16.83;8.82;;;8.50;99.90;;;;;;5108047;28;20108;-82
2022/11/29 13:20:27;;;;;;;17.30;9.65;;;8.40;99.90;;;;;;5095400;28;20063;-81
2022/11/29 13:22:58;;;;;;;15.00;9.27;;;8.40;99.90;;;;;;5071321;28;20489;-83
2022/11/29 13:25:29;;;;;;;15.50;9.18;;;8.40;99.90;;;;;;5089823;28;20115;-83
2022/11/29 13:28:14;;;;;;;17.27;9.57;;;8.30;99.90;;;;;;5091991;28;20131;-82
2022/11/29 13:30:40;;;;;;;16.27;9.35;;;8.30;99.90;;;;;;5092177;28;20815;-82
2022/11/29 13:33:13;;;;;;;16.40;9.85;;;8.30;99.90;;;;;;5093525;28;20040;-82
2022/11/29 13:35:57;;;;;;;16.63;9.43;;;8.20;99.90;;;;;;5098244;28;20460;-81
2022/11/29 13:38:39;;;;;;;16.60;9.70;;;8.20;99.90;;;;;;5094935;28;20507;-82